Time,TemperatureF,DewpointF,PressureIn,WindDirection,WindDirectionDegrees,WindSpeedMPH,WindSpeedGustMPH,Humidity,HourlyPrecipIn,Conditions,Clouds,dailyrainin,SoftwareType,DateUTC
2013-07-28 00:11:00,56.1,42.0,29.85,NW,326,1.0,1.0,59,0.00,,,0.00,weatherlink.com 1.10,2013-07-28 07:11:00,
2013-07-28 00:26:00,55.7,40.0,29.86,NW,325,0.0,3.0,57,0.00,,,0.00,weatherlink.com 1.10,2013-07-28 07:26:00,
2013-07-28 00:41:00,55.0,41.0,29.86,NW,326,0.0,1.0,59,0.00,,,0.00,weatherlink.com 1.10,2013-07-28 07:41:00,
2013-07-28 01:26:00,52.9,41.0,29.86,NW,326,0.0,0.0,65,0.00,,,0.00,weatherlink.com 1.10,2013-07-28 08:26:00,
2013-07-28 01:41:00,52.7,41.0,29.86,NW,326,0.0,0.0,65,0.00,,,0.00,weatherlink.com 1.10,2013-07-28 08:41:00,
2013-07-28 01:56:00,53.8,41.0,29.86,NW,325,1.0,2.0,63,0.00,,,0.00,weatherlink.com 1.10,2013-07-28 08:56:00,
2013-07-28 02:11:00,53.7,40.0,29.86,NW,325,0.0,2.0,61,0.00,,,0.00,weatherlink.com 1.10,2013-07-28 09:11:00,
2013-07-28 02:26:00,54.5,40.0,29.86,NW,326,3.0,5.0,59,0.00,,,0.00,weatherlink.com 1.10,2013-07-28 09:26:00,
2013-07-28 02:41:00,54.6,40.0,29.86,NW,321,0.0,4.0,58,0.00,,,0.00,weatherlink.com 1.10,2013-07-28 09:41:00,
2013-07-28 02:56:00,54.4,40.0,29.86,NW,319,2.0,5.0,58,0.00,,,0.00,weatherlink.com 1.10,2013-07-28 09:56:00,
2013-07-28 03:11:00,54.6,39.0,29.86,SE,135,3.0,7.0,57,0.00,,,0.00,weatherlink.com 1.10,2013-07-28 10:11:00,
2013-07-28 03:26:00,54.5,39.0,29.85,SSE,157,2.0,8.0,57,0.00,,,0.00,weatherlink.com 1.10,2013-07-28 10:26:00,
2013-07-28 03:41:00,54.3,40.0,29.85,SSE,148,3.0,6.0,58,0.00,,,0.00,weatherlink.com 1.10,2013-07-28 10:41:00,
2013-07-28 03:56:00,54.9,39.0,29.85,South,170,4.0,10.0,56,0.00,,,0.00,weatherlink.com 1.10,2013-07-28 10:56:00,
2013-07-28 04:11:00,54.8,39.0,29.86,South,186,2.0,6.0,56,0.00,,,0.00,weatherlink.com 1.10,2013-07-28 11:11:00,
2013-07-28 04:26:00,54.6,39.0,29.86,South,183,2.0,8.0,56,0.00,,,0.00,weatherlink.com 1.10,2013-07-28 11:26:00,
2013-07-28 04:56:00,53.8,39.0,29.86,SSW,195,2.0,6.0,57,0.00,,,0.00,weatherlink.com 1.10,2013-07-28 11:56:00,
2013-07-28 05:11:00,54.1,39.0,29.86,South,183,2.0,8.0,57,0.00,,,0.00,weatherlink.com 1.10,2013-07-28 12:11:00,
2013-07-28 05:26:00,54.2,39.0,29.86,SW,215,5.0,8.0,57,0.00,,,0.00,weatherlink.com 1.10,2013-07-28 12:26:00,
2013-07-28 05:41:00,54.1,39.0,29.86,South,186,6.0,9.0,57,0.00,,,0.00,weatherlink.com 1.10,2013-07-28 12:41:00,
2013-07-28 05:56:00,53.7,39.0,29.86,SSW,194,3.0,7.0,58,0.00,,,0.00,weatherlink.com 1.10,2013-07-28 12:56:00,
2013-07-28 06:11:00,53.6,39.0,29.86,SSE,167,5.0,8.0,59,0.00,,,0.00,weatherlink.com 1.10,2013-07-28 13:11:00,
2013-07-28 06:26:00,53.7,39.0,29.86,South,180,5.0,10.0,58,0.00,,,0.00,weatherlink.com 1.10,2013-07-28 13:26:00,
2013-07-28 06:41:00,53.8,39.0,29.86,South,177,9.0,10.0,58,0.00,,,0.00,weatherlink.com 1.10,2013-07-28 13:41:00,
2013-07-28 06:56:00,54.2,39.0,29.86,SSE,161,3.0,10.0,57,0.00,,,0.00,weatherlink.com 1.10,2013-07-28 13:56:00,
2013-07-28 07:11:00,54.6,39.0,29.87,South,187,5.0,12.0,57,0.00,,,0.00,weatherlink.com 1.10,2013-07-28 14:11:00,
2013-07-28 07:26:00,55.4,40.0,29.87,South,179,6.0,12.0,56,0.00,,,0.00,weatherlink.com 1.10,2013-07-28 14:26:00,
2013-07-28 07:41:00,56.2,40.0,29.87,South,172,4.0,11.0,54,0.00,,,0.00,weatherlink.com 1.10,2013-07-28 14:41:00,
2013-07-28 07:56:00,57.5,40.0,29.87,SSW,194,2.0,9.0,52,0.00,,,0.00,weatherlink.com 1.10,2013-07-28 14:56:00,
2013-07-28 08:11:00,58.9,40.0,29.86,South,175,0.0,7.0,50,0.00,,,0.00,weatherlink.com 1.10,2013-07-28 15:11:00,
2013-07-28 08:27:00,59.8,40.0,29.86,SSE,152,2.0,8.0,49,0.00,,,0.00,weatherlink.com 1.10,2013-07-28 15:27:00,
2013-07-28 08:42:00,60.8,39.0,29.86,SSE,156,4.0,9.0,45,0.00,,,0.00,weatherlink.com 1.10,2013-07-28 15:42:00,
2013-07-28 08:57:00,62.8,39.0,29.87,SSE,156,2.0,6.0,41,0.00,,,0.00,weatherlink.com 1.10,2013-07-28 15:57:00,
2013-07-28 09:12:00,63.8,39.0,29.86,SSE,161,4.0,7.0,40,0.00,,,0.00,weatherlink.com 1.10,2013-07-28 16:12:00,
2013-07-28 09:27:00,64.9,37.0,29.86,SSE,161,4.0,5.0,36,0.00,,,0.00,weatherlink.com 1.10,2013-07-28 16:27:00,
2013-07-28 09:42:00,67.0,23.0,29.86,NNW,327,4.0,8.0,19,0.00,,,0.00,weatherlink.com 1.10,2013-07-28 16:42:00,
2013-07-28 09:57:00,68.2,24.0,29.85,West,277,3.0,7.0,19,0.00,,,0.00,weatherlink.com 1.10,2013-07-28 16:57:00,
2013-07-28 10:12:00,69.5,24.0,29.85,WNW,296,4.0,7.0,18,0.00,,,0.00,weatherlink.com 1.10,2013-07-28 17:12:00,
2013-07-28 10:27:00,70.8,25.0,29.84,NNW,330,4.0,7.0,18,0.00,,,0.00,weatherlink.com 1.10,2013-07-28 17:27:00,
2013-07-28 10:42:00,71.4,27.0,29.84,NW,317,4.0,8.0,19,0.00,,,0.00,weatherlink.com 1.10,2013-07-28 17:42:00,
2013-07-28 10:57:00,71.8,26.0,29.85,NNW,337,5.0,8.0,18,0.00,,,0.00,weatherlink.com 1.10,2013-07-28 17:57:00,
2013-07-28 11:12:00,72.5,31.0,29.84,WNW,290,3.0,8.0,22,0.00,,,0.00,weatherlink.com 1.10,2013-07-28 18:12:00,
2013-07-28 11:27:00,73.8,29.0,29.84,NW,326,7.0,10.0,19,0.00,,,0.00,weatherlink.com 1.10,2013-07-28 18:27:00,
2013-07-28 11:42:00,74.5,28.0,29.84,North,11,4.0,9.0,18,0.00,,,0.00,weatherlink.com 1.10,2013-07-28 18:42:00,
2013-07-28 11:57:00,74.0,28.0,29.83,NNW,329,2.0,7.0,18,0.00,,,0.00,weatherlink.com 1.10,2013-07-28 18:57:00,
2013-07-28 12:12:00,75.0,30.0,29.83,NNW,333,6.0,9.0,19,0.00,,,0.00,weatherlink.com 1.10,2013-07-28 19:12:00,
2013-07-28 12:27:00,76.5,30.0,29.83,WNW,302,3.0,8.0,18,0.00,,,0.00,weatherlink.com 1.10,2013-07-28 19:27:00,
2013-07-28 12:42:00,76.4,35.0,29.82,North,360,1.0,10.0,22,0.00,,,0.00,weatherlink.com 1.10,2013-07-28 19:42:00,
2013-07-28 12:57:00,75.9,29.0,29.82,NNW,334,2.0,8.0,18,0.00,,,0.00,weatherlink.com 1.10,2013-07-28 19:57:00,
2013-07-28 13:12:00,77.5,31.0,29.81,WNW,285,0.0,13.0,18,0.00,,,0.00,weatherlink.com 1.10,2013-07-28 20:12:00,
2013-07-28 13:27:00,77.4,31.0,29.81,West,259,4.0,11.0,18,0.00,,,0.00,weatherlink.com 1.10,2013-07-28 20:27:00,
2013-07-28 13:42:00,79.0,31.0,29.81,North,350,6.0,13.0,17,0.00,,,0.00,weatherlink.com 1.10,2013-07-28 20:42:00,
2013-07-28 13:57:00,79.5,29.0,29.80,NW,317,3.0,11.0,16,0.00,,,0.00,weatherlink.com 1.10,2013-07-28 20:57:00,
2013-07-28 14:12:00,80.0,30.0,29.80,West,277,6.0,11.0,16,0.00,,,0.00,weatherlink.com 1.10,2013-07-28 21:12:00,
2013-07-28 14:27:00,80.1,31.0,29.80,NNW,332,3.0,7.0,17,0.00,,,0.00,weatherlink.com 1.10,2013-07-28 21:27:00,
2013-07-28 14:42:00,81.1,32.0,29.79,WSW,254,2.0,10.0,17,0.00,,,0.00,weatherlink.com 1.10,2013-07-28 21:42:00,
2013-07-28 14:57:00,81.3,32.0,29.79,NNW,348,3.0,14.0,17,0.00,,,0.00,weatherlink.com 1.10,2013-07-28 21:57:00,
2013-07-28 15:12:00,81.0,32.0,29.80,WNW,290,7.0,11.0,17,0.00,,,0.00,weatherlink.com 1.10,2013-07-28 22:12:00,
2013-07-28 15:28:00,81.2,31.0,29.79,West,274,6.0,15.0,16,0.00,,,0.00,weatherlink.com 1.10,2013-07-28 22:28:00,
2013-07-28 15:43:00,80.2,32.0,29.79,WSW,257,3.0,14.0,17,0.00,,,0.00,weatherlink.com 1.10,2013-07-28 22:43:00,
2013-07-28 15:58:00,80.9,32.0,29.79,West,280,4.0,14.0,17,0.00,,,0.00,weatherlink.com 1.10,2013-07-28 22:58:00,
2013-07-28 16:13:00,80.9,34.0,29.79,West,279,4.0,15.0,18,0.00,,,0.00,weatherlink.com 1.10,2013-07-28 23:13:00,
2013-07-28 16:28:00,81.2,32.0,29.79,NNW,344,7.0,14.0,17,0.00,,,0.00,weatherlink.com 1.10,2013-07-28 23:28:00,
2013-07-28 16:43:00,80.4,33.0,29.79,NNW,330,6.0,13.0,18,0.00,,,0.00,weatherlink.com 1.10,2013-07-28 23:43:00,
2013-07-28 16:58:00,80.2,34.0,29.78,North,5,5.0,13.0,19,0.00,,,0.00,weatherlink.com 1.10,2013-07-28 23:58:00,
2013-07-28 17:13:00,80.5,35.0,29.78,WNW,292,10.0,13.0,19,0.00,,,0.00,weatherlink.com 1.10,2013-07-29 00:13:00,
2013-07-28 17:28:00,79.4,35.0,29.79,NW,306,6.0,13.0,20,0.00,,,0.00,weatherlink.com 1.10,2013-07-29 00:28:00,
2013-07-28 17:43:00,79.9,37.0,29.78,NW,312,5.0,11.0,21,0.00,,,0.00,weatherlink.com 1.10,2013-07-29 00:43:00,
2013-07-28 17:58:00,78.8,37.0,29.78,NW,311,3.0,12.0,22,0.00,,,0.00,weatherlink.com 1.10,2013-07-29 00:58:00,
2013-07-28 18:13:00,78.5,35.0,29.79,West,275,6.0,14.0,21,0.00,,,0.00,weatherlink.com 1.10,2013-07-29 01:13:00,
2013-07-28 18:28:00,78.0,36.0,29.78,NW,318,7.0,14.0,22,0.00,,,0.00,weatherlink.com 1.10,2013-07-29 01:28:00,
2013-07-28 18:43:00,77.6,37.0,29.78,WNW,299,6.0,11.0,23,0.00,,,0.00,weatherlink.com 1.10,2013-07-29 01:43:00,
2013-07-28 18:58:00,76.9,38.0,29.79,NNW,342,6.0,12.0,25,0.00,,,0.00,weatherlink.com 1.10,2013-07-29 01:58:00,
2013-07-28 19:13:00,76.1,39.0,29.79,NNW,329,3.0,13.0,26,0.00,,,0.00,weatherlink.com 1.10,2013-07-29 02:13:00,
2013-07-28 19:28:00,75.2,41.0,29.79,NW,317,4.0,12.0,29,0.00,,,0.00,weatherlink.com 1.10,2013-07-29 02:28:00,
2013-07-28 19:58:00,73.3,42.0,29.79,WNW,302,4.0,10.0,32,0.00,,,0.00,weatherlink.com 1.10,2013-07-29 02:58:00,
2013-07-28 20:13:00,72.0,42.0,29.79,NNW,329,6.0,12.0,34,0.00,,,0.00,weatherlink.com 1.10,2013-07-29 03:13:00,
2013-07-28 20:28:00,70.6,42.0,29.80,WNW,302,2.0,10.0,36,0.00,,,0.00,weatherlink.com 1.10,2013-07-29 03:28:00,
2013-07-28 20:58:00,67.9,43.0,29.81,NNW,342,7.0,7.0,41,0.00,,,0.00,weatherlink.com 1.10,2013-07-29 03:58:00,
2013-07-28 21:13:00,66.8,43.0,29.81,NNW,331,3.0,6.0,42,0.00,,,0.00,weatherlink.com 1.10,2013-07-29 04:13:00,
2013-07-28 21:28:00,65.7,43.0,29.81,NW,315,4.0,9.0,44,0.00,,,0.00,weatherlink.com 1.10,2013-07-29 04:28:00,
2013-07-28 21:43:00,64.6,43.0,29.82,NW,315,1.0,5.0,46,0.00,,,0.00,weatherlink.com 1.10,2013-07-29 04:43:00,
2013-07-28 21:58:00,63.2,44.0,29.82,NW,315,0.0,3.0,50,0.00,,,0.00,weatherlink.com 1.10,2013-07-29 04:58:00,
2013-07-28 22:13:00,62.6,44.0,29.82,NW,315,1.0,2.0,51,0.00,,,0.00,weatherlink.com 1.10,2013-07-29 05:13:00,
2013-07-28 22:28:00,61.9,44.0,29.82,NW,315,0.0,1.0,52,0.00,,,0.00,weatherlink.com 1.10,2013-07-29 05:28:00,
2013-07-28 22:43:00,60.3,44.0,29.83,NW,315,0.0,1.0,55,0.00,,,0.00,weatherlink.com 1.10,2013-07-29 05:43:00,
2013-07-28 22:58:00,59.1,44.0,29.83,NW,315,0.0,0.0,58,0.00,,,0.00,weatherlink.com 1.10,2013-07-29 05:58:00,
2013-07-28 23:13:00,58.4,44.0,29.83,NW,315,0.0,0.0,60,0.00,,,0.00,weatherlink.com 1.10,2013-07-29 06:13:00,
2013-07-28 23:28:00,57.8,44.0,29.82,NW,315,0.0,2.0,60,0.00,,,0.00,weatherlink.com 1.10,2013-07-29 06:28:00,
2013-07-28 23:43:00,57.7,44.0,29.82,NW,315,0.0,0.0,61,0.00,,,0.00,weatherlink.com 1.10,2013-07-29 06:43:00,
2013-07-28 23:58:00,57.2,44.0,29.83,NW,315,0.0,0.0,62,0.00,,,0.00,weatherlink.com 1.10,2013-07-29 06:58:00,